DQA226 VREI-VRMD
Flight info
| Callsign | DQA226 |
|---|---|
| Flight time | 0h 13m |
| Altitude | 4000 |
| Route | UGITA/N0279F060 |
| Aircraft | DH8D/M-SDE2E3FGRY/H |
Departure
| Time | 2026-04-25 16:22 |
|---|---|
| Airport | Ifuru Airport (VREI) |
Arrival
| Time | 2026-04-25 16:35 |
|---|---|
| Airport | Dharavandhoo Airport (VRMD) |
| Time | Latitude | Longitude | Altitude | Speed | Heading |
|---|---|---|---|---|---|
| 2026-04-25 16:05 | 5.70708 | 73.02432 | 31 ft | 0 kts | 350° |
| 2026-04-25 16:17 | 5.70725 | 73.02431 | 31 ft | 5 kts | 5° |
| 2026-04-25 16:17 | 5.70745 | 73.02453 | 30 ft | 2 kts | 72° |
| 2026-04-25 16:17 | 5.70754 | 73.02498 | 29 ft | 10 kts | 66° |
| 2026-04-25 16:18 | 5.70856 | 73.02501 | 29 ft | 24 kts | 353° |
| 2026-04-25 16:18 | 5.70922 | 73.02494 | 29 ft | 30 kts | 353° |
| 2026-04-25 16:18 | 5.71208 | 73.02460 | 25 ft | 21 kts | 353° |
| 2026-04-25 16:18 | 5.71320 | 73.02433 | 23 ft | 11 kts | 322° |
| 2026-04-25 16:19 | 5.71342 | 73.02435 | 22 ft | 0 kts | 125° |
| 2026-04-25 16:19 | 5.71340 | 73.02436 | 22 ft | 0 kts | 135° |
| 2026-04-25 16:19 | 5.71340 | 73.02437 | 22 ft | 0 kts | 135° |
| 2026-04-25 16:20 | 5.71316 | 73.02446 | 22 ft | 0 kts | 171° |
| 2026-04-25 16:21 | 5.71258 | 73.02454 | 24 ft | 36 kts | 173° |
| 2026-04-25 16:21 | 5.70682 | 73.02522 | 29 ft | 124 kts | 173° |
| 2026-04-25 16:22 | 5.69650 | 73.02612 | 375 ft | 158 kts | 175° |
| 2026-04-25 16:22 | 5.68463 | 73.02671 | 788 ft | 179 kts | 175° |
| 2026-04-25 16:22 | 5.67213 | 73.02822 | 1376 ft | 185 kts | 160° |
| 2026-04-25 16:22 | 5.65971 | 73.03268 | 1967 ft | 192 kts | 158° |
| 2026-04-25 16:23 | 5.64669 | 73.03725 | 2349 ft | 210 kts | 158° |
| 2026-04-25 16:23 | 5.63206 | 73.04256 | 2488 ft | 235 kts | 157° |
| 2026-04-25 16:23 | 5.61617 | 73.04848 | 2818 ft | 248 kts | 158° |
| 2026-04-25 16:23 | 5.59948 | 73.05479 | 3184 ft | 254 kts | 157° |
| 2026-04-25 16:24 | 5.58248 | 73.06127 | 3559 ft | 258 kts | 157° |
| 2026-04-25 16:24 | 5.56572 | 73.06772 | 3839 ft | 259 kts | 157° |
| 2026-04-25 16:24 | 5.54903 | 73.07418 | 3930 ft | 257 kts | 157° |
| 2026-04-25 16:24 | 5.53221 | 73.08070 | 3965 ft | 256 kts | 157° |
| 2026-04-25 16:25 | 5.51525 | 73.08727 | 3977 ft | 257 kts | 156° |
| 2026-04-25 16:25 | 5.50423 | 73.09154 | 3982 ft | 257 kts | 156° |
| 2026-04-25 16:25 | 5.48161 | 73.10031 | 3988 ft | 258 kts | 157° |
| 2026-04-25 16:25 | 5.46472 | 73.10687 | 3992 ft | 259 kts | 156° |
| 2026-04-25 16:26 | 5.44791 | 73.11340 | 3993 ft | 259 kts | 156° |
| 2026-04-25 16:26 | 5.43081 | 73.12003 | 3996 ft | 259 kts | 157° |
| 2026-04-25 16:26 | 5.41381 | 73.12664 | 3996 ft | 259 kts | 156° |
| 2026-04-25 16:26 | 5.39696 | 73.13322 | 3995 ft | 259 kts | 156° |
| 2026-04-25 16:27 | 5.38123 | 73.14208 | 4001 ft | 257 kts | 142° |
| 2026-04-25 16:27 | 5.36691 | 73.15290 | 3998 ft | 257 kts | 141° |
| 2026-04-25 16:27 | 5.35257 | 73.16387 | 3996 ft | 258 kts | 141° |
| 2026-04-25 16:27 | 5.33809 | 73.17494 | 3995 ft | 258 kts | 141° |
| 2026-04-25 16:28 | 5.32361 | 73.18598 | 3994 ft | 258 kts | 141° |
| 2026-04-25 16:28 | 5.30921 | 73.19693 | 3993 ft | 259 kts | 141° |
| 2026-04-25 16:28 | 5.29482 | 73.20785 | 3993 ft | 259 kts | 141° |
| 2026-04-25 16:28 | 5.28036 | 73.21881 | 3992 ft | 259 kts | 141° |
| 2026-04-25 16:29 | 5.26599 | 73.22971 | 3992 ft | 259 kts | 141° |
| 2026-04-25 16:29 | 5.25138 | 73.24077 | 3992 ft | 259 kts | 141° |
| 2026-04-25 16:29 | 5.23688 | 73.25173 | 3992 ft | 259 kts | 141° |
| 2026-04-25 16:29 | 5.22241 | 73.26267 | 3991 ft | 259 kts | 141° |
| 2026-04-25 16:30 | 5.20789 | 73.27366 | 3988 ft | 258 kts | 141° |
| 2026-04-25 16:30 | 5.19356 | 73.28450 | 3985 ft | 254 kts | 141° |
| 2026-04-25 16:30 | 5.17905 | 73.29427 | 3965 ft | 250 kts | 154° |
| 2026-04-25 16:30 | 5.16209 | 73.29594 | 3972 ft | 248 kts | 191° |
| 2026-04-25 16:31 | 5.14572 | 73.29005 | 3899 ft | 251 kts | 201° |
| 2026-04-25 16:31 | 5.12935 | 73.28303 | 3607 ft | 258 kts | 202° |
| 2026-04-25 16:31 | 5.11367 | 73.27388 | 2964 ft | 256 kts | 224° |
| 2026-04-25 16:31 | 5.10627 | 73.25916 | 2544 ft | 229 kts | 265° |
| 2026-04-25 16:32 | 5.10860 | 73.24455 | 2275 ft | 200 kts | 291° |
| 2026-04-25 16:32 | 5.11313 | 73.23203 | 2036 ft | 178 kts | 293° |
| 2026-04-25 16:32 | 5.11731 | 73.22106 | 1834 ft | 160 kts | 293° |
| 2026-04-25 16:32 | 5.12130 | 73.21101 | 1606 ft | 151 kts | 295° |
| 2026-04-25 16:33 | 5.12542 | 73.20116 | 1394 ft | 150 kts | 296° |
| 2026-04-25 16:33 | 5.12925 | 73.19197 | 1188 ft | 137 kts | 295° |
| 2026-04-25 16:33 | 5.13295 | 73.18342 | 1001 ft | 130 kts | 297° |
| 2026-04-25 16:33 | 5.13653 | 73.17515 | 828 ft | 129 kts | 297° |
| 2026-04-25 16:34 | 5.14029 | 73.16694 | 701 ft | 129 kts | 297° |
| 2026-04-25 16:34 | 5.14358 | 73.15842 | 560 ft | 133 kts | 291° |
| 2026-04-25 16:34 | 5.14716 | 73.14977 | 413 ft | 137 kts | 298° |
| 2026-04-25 16:34 | 5.15112 | 73.14092 | 189 ft | 139 kts | 298° |
| 2026-04-25 16:35 | 5.15509 | 73.13232 | 24 ft | 124 kts | 296° |
| 2026-04-25 16:35 | 5.15754 | 73.12691 | 26 ft | 56 kts | 295° |
| 2026-04-25 16:35 | 5.15808 | 73.12580 | 25 ft | 7 kts | 317° |
| 2026-04-25 16:35 | 5.15815 | 73.12547 | 25 ft | 8 kts | 137° |
| 2026-04-25 16:36 | 5.15767 | 73.12663 | 26 ft | 26 kts | 113° |
| 2026-04-25 16:36 | 5.15740 | 73.12723 | 27 ft | 31 kts | 114° |
| 2026-04-25 16:36 | 5.15555 | 73.13132 | 24 ft | 43 kts | 113° |
| 2026-04-25 16:36 | 5.15465 | 73.13333 | 20 ft | 18 kts | 114° |
| 2026-04-25 16:37 | 5.15479 | 73.13393 | 20 ft | 7 kts | 25° |
| 2026-04-25 16:37 | 5.15502 | 73.13423 | 20 ft | 5 kts | 99° |
| 2026-04-25 16:37 | 5.15493 | 73.13450 | 19 ft | 0 kts | 113° |